Willimantic, Connecticut
Current Conditions -  °F | °C
As of 8:52 AM on Wednesday 28 Jan 2015 (Local Time) from KIJD Reporting Station
Broken Clouds Broken Clouds  
Wind Chill:   Ceiling: 4900
Heat Index: 14°   Visibility: 10mi
Dew Point:   Wind: 13mph
Humidity: 56%   Direction: 340°NNW
Pressure: 29.96"   Gusts: 18mph
Location:  41.71°N, 72.21°W
Report Text: KIJD 281352Z AUTO 34011G16KT 10SM BKN049 M10/M17 A2996 RMK AO2 SLP149 T11001172
Loading
Personal Weather Stations






























Interactive Weather Map New forecast layout! Learn more

10-Day Weather Forecast

Advertisements
Track Severe Weather on mobile